createdAt,value
2018-06-21T00:02:26.193Z,9.80
2018-06-21T00:04:52.633Z,7.00
2018-06-21T00:07:19.581Z,6.60
2018-06-21T00:09:46.047Z,8.20
2018-06-21T00:12:12.503Z,9.40
2018-06-21T00:14:40.600Z,7.40
2018-06-21T00:17:07.443Z,9.00
2018-06-21T00:19:33.885Z,7.40
2018-06-21T00:22:03.496Z,7.20
2018-06-21T00:24:31.046Z,6.20
2018-06-21T00:26:58.481Z,6.00
2018-06-21T00:29:26.546Z,7.00
2018-06-21T00:31:54.529Z,7.00
2018-06-21T00:34:23.250Z,7.00
2018-06-21T00:36:49.763Z,8.80
2018-06-21T00:39:16.496Z,9.00
2018-06-21T00:41:42.937Z,9.00
2018-06-21T00:44:09.818Z,12.20
2018-06-21T00:46:36.278Z,13.00
2018-06-21T00:49:02.736Z,11.80
2018-06-21T00:51:29.210Z,10.00
2018-06-21T00:53:56.121Z,12.40
2018-06-21T00:56:22.597Z,15.00
2018-06-21T00:58:49.201Z,10.40
2018-06-21T01:01:16.581Z,8.20
2018-06-21T01:03:43.104Z,11.00
2018-06-21T01:06:09.865Z,9.00
2018-06-21T01:08:36.417Z,12.60
2018-06-21T01:11:04.317Z,12.40
2018-06-21T01:13:30.995Z,14.20
2018-06-21T01:15:57.464Z,9.00
2018-06-21T01:18:24.243Z,14.00
2018-06-21T01:20:50.726Z,12.20
2018-06-21T01:23:17.173Z,9.00
2018-06-21T01:25:44.139Z,13.00
2018-06-21T01:28:10.588Z,13.00
2018-06-21T01:30:37.050Z,14.20
2018-06-21T01:33:03.510Z,12.60
2018-06-21T01:35:30.284Z,12.20
2018-06-21T01:37:56.750Z,16.40
2018-06-21T01:40:23.204Z,12.60
2018-06-21T01:42:49.668Z,12.80
2018-06-21T01:45:16.633Z,13.00
2018-06-21T01:47:43.094Z,11.80
2018-06-21T01:50:09.541Z,9.20
2018-06-21T01:52:36.017Z,10.40
2018-06-21T01:55:03.652Z,7.00
2018-06-21T01:57:30.113Z,11.60
2018-06-21T01:59:56.660Z,10.80
2018-06-21T02:02:23.109Z,9.40
2018-06-21T02:04:49.577Z,12.00
2018-06-21T02:07:16.992Z,14.60
2018-06-21T02:09:43.817Z,12.80
2018-06-21T02:12:10.290Z,15.60
2018-06-21T02:14:36.757Z,12.40
2018-06-21T02:17:03.729Z,12.40
2018-06-21T02:19:31.708Z,15.00
2018-06-21T02:22:05.221Z,12.00
2018-06-21T02:24:32.850Z,18.60
2018-06-21T02:26:59.952Z,16.40
2018-06-21T02:29:27.199Z,13.00
2018-06-21T02:31:54.670Z,15.20
2018-06-21T02:34:22.453Z,13.00
2018-06-21T02:36:50.225Z,15.00
2018-06-21T02:39:22.424Z,16.20
2018-06-21T02:41:50.648Z,15.80
2018-06-21T02:44:17.175Z,15.20
2018-06-21T02:46:43.641Z,12.00
2018-06-21T02:49:10.089Z,14.80
2018-06-21T02:51:37.029Z,8.40
2018-06-21T02:54:03.491Z,10.80
2018-06-21T02:56:29.950Z,14.60
2018-06-21T02:58:56.437Z,10.80
2018-06-21T03:01:23.402Z,11.20
2018-06-21T03:03:49.906Z,14.20
2018-06-21T03:06:16.380Z,15.20
2018-06-21T03:08:43.273Z,14.20
2018-06-21T03:11:09.726Z,15.80
2018-06-21T03:13:36.188Z,15.00
2018-06-21T03:16:02.644Z,13.80
2018-06-21T03:18:29.621Z,13.80
2018-06-21T03:20:56.074Z,17.60
2018-06-21T03:23:22.665Z,12.00
2018-06-21T03:25:49.540Z,12.40
2018-06-21T03:28:16.607Z,12.60
2018-06-21T03:30:47.061Z,12.20
2018-06-21T03:33:13.520Z,13.40
2018-06-21T03:35:39.976Z,13.20
2018-06-21T03:38:06.929Z,12.20
2018-06-21T03:40:33.400Z,13.80
2018-06-21T03:42:59.861Z,13.80
2018-06-21T03:45:26.325Z,9.60
2018-06-21T03:47:53.273Z,15.00
2018-06-21T03:50:19.721Z,5.20
2018-06-21T03:52:46.177Z,14.20
2018-06-21T03:55:12.639Z,15.60
2018-06-21T03:57:39.509Z,13.00
2018-06-21T04:00:05.992Z,15.00
2018-06-21T04:02:32.453Z,15.00
2018-06-21T04:05:00.769Z,13.80
2018-06-21T04:07:27.225Z,17.60
2018-06-21T04:09:53.683Z,15.00
2018-06-21T04:12:20.149Z,15.60
2018-06-21T04:14:48.053Z,15.00
2018-06-21T04:17:14.529Z,14.20
2018-06-21T04:19:40.976Z,15.80
2018-06-21T04:22:07.421Z,12.00
2018-06-21T04:24:37.092Z,14.20
2018-06-21T04:27:04.618Z,14.40
2018-06-21T04:29:31.437Z,15.40
2018-06-21T04:31:58.301Z,15.00
2018-06-21T04:34:24.756Z,13.80
2018-06-21T04:36:51.988Z,15.20
2018-06-21T04:39:18.984Z,16.00
2018-06-21T04:41:45.462Z,12.60
2018-06-21T04:44:11.916Z,9.60
2018-06-21T04:46:38.696Z,17.60
2018-06-21T04:49:05.153Z,13.00
2018-06-21T04:51:31.651Z,15.00
2018-06-21T04:53:59.569Z,12.00
2018-06-21T04:56:26.285Z,9.80
2018-06-21T04:58:52.741Z,10.00
2018-06-21T05:01:19.566Z,12.00
2018-06-21T05:03:46.022Z,12.00
2018-06-21T05:06:12.508Z,10.80
2018-06-21T05:08:39.453Z,10.00
2018-06-21T05:11:05.928Z,10.00
2018-06-21T05:13:32.401Z,7.00
2018-06-21T05:15:59.422Z,11.80
2018-06-21T05:18:25.898Z,9.20
2018-06-21T05:20:52.611Z,9.40
2018-06-21T05:23:19.431Z,10.40
2018-06-21T05:25:45.884Z,11.00
2018-06-21T05:28:12.426Z,13.00
2018-06-21T05:30:39.292Z,9.00
2018-06-21T05:33:06.691Z,13.80
2018-06-21T05:35:33.153Z,12.40
2018-06-21T05:38:00.032Z,11.60
2018-06-21T05:40:26.557Z,16.00
2018-06-21T05:42:53.008Z,21.20
2018-06-21T05:45:21.088Z,18.60
2018-06-21T05:47:47.757Z,18.60
2018-06-21T05:50:14.229Z,21.00
2018-06-21T05:52:41.068Z,17.80
2018-06-21T05:55:08.309Z,20.20
2018-06-21T05:57:34.763Z,15.00
2018-06-21T06:00:01.645Z,19.40
2018-06-21T06:02:28.117Z,26.00
2018-06-21T06:04:56.209Z,23.60
2018-06-21T06:07:23.132Z,25.20
2018-06-21T06:09:51.243Z,22.40
2018-06-21T06:12:17.709Z,20.40
2018-06-21T06:14:44.509Z,22.60
2018-06-21T06:17:10.969Z,18.40
2018-06-21T06:19:37.422Z,24.60
2018-06-21T06:22:07.759Z,29.40
2018-06-21T06:24:34.284Z,28.40
2018-06-21T06:27:00.975Z,24.60
2018-06-21T06:29:27.816Z,24.40
2018-06-21T06:31:54.361Z,28.00
2018-06-21T06:34:21.609Z,21.80
2018-06-21T06:36:48.530Z,25.00
2018-06-21T06:39:15.823Z,28.80
2018-06-21T06:41:42.289Z,28.20
2018-06-21T06:44:09.260Z,24.80
2018-06-21T06:46:35.736Z,28.00
2018-06-21T06:49:02.194Z,33.40
2018-06-21T06:51:28.969Z,29.80
2018-06-21T06:53:55.441Z,26.80
2018-06-21T06:56:21.929Z,22.00
2018-06-21T06:58:48.888Z,26.00
2018-06-21T07:01:15.350Z,24.60
2018-06-21T07:03:41.835Z,27.60
2018-06-21T07:06:09.444Z,23.20
2018-06-21T07:08:39.472Z,20.20
2018-06-21T07:11:05.945Z,17.20
2018-06-21T07:13:32.862Z,24.20
2018-06-21T07:15:59.324Z,7.20
2018-06-21T07:18:25.777Z,27.20
2018-06-21T07:20:52.709Z,14.20
2018-06-21T07:23:20.445Z,20.40
2018-06-21T07:25:46.896Z,18.20
2018-06-21T07:28:13.833Z,15.00
2018-06-21T07:30:40.303Z,27.80
2018-06-21T07:33:06.748Z,23.60
2018-06-21T07:35:33.204Z,18.60
2018-06-21T07:38:00.241Z,21.20
2018-06-21T07:40:27.033Z,21.40
2018-06-21T07:42:54.090Z,20.20
2018-06-21T07:45:20.556Z,24.80
2018-06-21T07:47:47.349Z,24.20
2018-06-21T07:50:13.844Z,30.00
2018-06-21T07:52:40.335Z,25.80
2018-06-21T07:55:07.286Z,27.20
2018-06-21T07:57:33.837Z,28.80
2018-06-21T08:00:00.417Z,30.60
2018-06-21T08:02:27.373Z,31.00
2018-06-21T08:04:53.865Z,24.40
2018-06-21T08:07:20.349Z,36.00
2018-06-21T08:09:47.227Z,25.40
2018-06-21T08:12:13.705Z,35.60
2018-06-21T08:14:40.161Z,27.60
2018-06-21T08:19:38.484Z,28.20
2018-06-21T08:22:05.077Z,31.80
2018-06-21T08:24:32.741Z,29.60
2018-06-21T08:27:01.358Z,30.60
2018-06-21T08:29:27.928Z,34.20
2018-06-21T08:31:54.467Z,31.60
2018-06-21T08:34:23.222Z,30.80
2018-06-21T08:36:49.857Z,21.20
2018-06-21T08:39:16.493Z,25.40
2018-06-21T08:41:43.260Z,17.60
2018-06-21T08:44:10.481Z,23.80
2018-06-21T08:46:37.960Z,21.00
2018-06-21T08:49:04.753Z,17.20
2018-06-21T08:51:31.232Z,19.40
2018-06-21T08:53:57.705Z,16.40
2018-06-21T08:56:25.552Z,20.20
2018-06-21T08:58:52.923Z,21.20
2018-06-21T09:01:20.683Z,19.40
2018-06-21T09:03:50.808Z,24.00
2018-06-21T09:06:18.335Z,21.20
2018-06-21T09:08:44.799Z,22.20
2018-06-21T09:11:12.161Z,22.40
2018-06-21T09:13:38.641Z,24.20
2018-06-21T09:16:05.772Z,14.60
2018-06-21T09:18:33.803Z,14.20
2018-06-21T09:21:01.228Z,18.80
2018-06-21T09:23:27.762Z,17.60
2018-06-21T09:25:55.240Z,18.00
2018-06-21T09:28:21.830Z,21.60
2018-06-21T09:30:49.728Z,15.20
2018-06-21T09:33:17.376Z,19.20
2018-06-21T09:35:43.895Z,13.00
2018-06-21T09:38:10.576Z,9.80
2018-06-21T09:40:38.454Z,12.00
2018-06-21T09:43:04.929Z,12.20
2018-06-21T09:45:31.392Z,9.00
2018-06-21T09:47:58.184Z,6.40
2018-06-21T09:50:25.360Z,6.00
2018-06-21T09:52:52.485Z,7.00
2018-06-21T09:55:19.555Z,6.20
2018-06-21T09:57:48.064Z,7.00
2018-06-21T10:00:15.142Z,7.00
2018-06-21T10:02:41.914Z,6.80
2018-06-21T10:05:08.385Z,6.00
2018-06-21T10:07:34.865Z,6.00
2018-06-21T10:10:01.632Z,4.80
2018-06-21T10:12:28.178Z,4.00
2018-06-21T10:14:54.643Z,6.80
2018-06-21T10:17:22.500Z,6.00
2018-06-21T10:19:49.356Z,4.00
2018-06-21T10:22:16.461Z,7.00
2018-06-21T10:24:43.248Z,6.20
2018-06-21T10:27:10.490Z,3.40
2018-06-21T10:34:41.913Z,1.40
2018-06-21T10:37:08.371Z,5.20
2018-06-21T10:39:34.847Z,4.40
2018-06-21T10:42:02.271Z,4.00
2018-06-21T10:44:28.724Z,6.00
2018-06-21T10:46:55.314Z,3.80
2018-06-21T10:49:22.076Z,5.20
2018-06-21T10:51:48.524Z,5.60
2018-06-21T10:54:14.998Z,7.00
2018-06-21T10:56:41.813Z,5.20
2018-06-21T10:59:08.287Z,4.80
2018-06-21T11:01:34.801Z,3.60
2018-06-21T11:04:01.551Z,1.40
2018-06-21T11:06:28.911Z,3.20
2018-06-21T11:08:56.380Z,3.00
2018-06-21T11:11:25.967Z,3.40
2018-06-21T11:13:52.419Z,5.60
2018-06-21T11:16:19.652Z,3.40
2018-06-21T11:18:47.345Z,4.40
2018-06-21T11:21:13.796Z,4.00
2018-06-21T11:23:40.250Z,5.20
2018-06-21T11:26:07.246Z,3.00
2018-06-21T11:28:33.707Z,4.80
2018-06-21T11:31:00.196Z,4.00
2018-06-21T11:33:27.978Z,6.20
2018-06-21T11:35:54.437Z,4.80
2018-06-21T11:38:20.903Z,4.40
2018-06-21T11:40:47.758Z,6.80
2018-06-21T11:43:14.202Z,0.60
2018-06-21T11:45:40.655Z,4.00
2018-06-21T11:48:07.472Z,3.80
2018-06-21T11:50:34.353Z,3.00
2018-06-21T11:53:00.805Z,1.00
2018-06-21T11:58:00.036Z,3.00
2018-06-21T12:00:29.534Z,1.40
2018-06-21T12:02:58.665Z,1.00
2018-06-21T12:05:27.261Z,1.00
2018-06-21T12:07:53.736Z,1.00
2018-06-21T12:10:20.484Z,2.60
2018-06-21T12:12:46.942Z,3.00
2018-06-21T12:15:13.400Z,1.40
2018-06-21T12:17:45.594Z,1.40
2018-06-21T12:20:13.576Z,1.00
2018-06-21T12:22:40.984Z,1.00
2018-06-21T12:25:07.953Z,1.00
2018-06-21T12:27:34.451Z,1.00
2018-06-21T12:30:00.925Z,1.00
2018-06-21T12:32:27.803Z,1.80
2018-06-21T12:34:57.183Z,1.00
2018-06-21T12:37:24.390Z,2.20
2018-06-21T12:39:51.441Z,1.00
2018-06-21T12:42:18.321Z,1.00
2018-06-21T12:44:44.792Z,0.00
2018-06-21T12:47:11.704Z,1.00
2018-06-21T12:49:42.146Z,1.40
2018-06-21T12:52:08.613Z,1.00
2018-06-21T12:54:35.352Z,3.20
2018-06-21T12:57:01.814Z,1.80
2018-06-21T12:59:28.269Z,2.60
2018-06-21T13:01:57.208Z,1.00
2018-06-21T13:04:23.843Z,2.20
2018-06-21T13:06:50.296Z,1.80
2018-06-21T13:09:17.041Z,3.00
2018-06-21T13:11:43.530Z,1.00
2018-06-21T13:14:10.769Z,1.00
2018-06-21T13:16:38.607Z,3.00
2018-06-21T13:19:05.069Z,3.00
2018-06-21T13:21:31.588Z,3.00
2018-06-21T13:23:58.373Z,2.20
2018-06-21T13:26:24.824Z,1.00
2018-06-21T13:28:51.285Z,3.00
2018-06-21T13:31:18.020Z,1.00
2018-06-21T13:33:44.465Z,3.00
2018-06-21T13:36:10.925Z,3.40
2018-06-21T13:38:37.689Z,2.60
2018-06-21T13:41:05.282Z,1.00
2018-06-21T13:43:31.918Z,0.00
2018-06-21T13:45:59.819Z,3.80
2018-06-21T13:48:26.885Z,3.00
2018-06-21T13:50:53.338Z,1.00
2018-06-21T13:53:21.934Z,1.80
2018-06-21T13:55:48.399Z,3.00
2018-06-21T13:58:18.562Z,2.60
2018-06-21T14:00:46.124Z,4.00
2018-06-21T14:03:14.295Z,3.60
2018-06-21T14:05:40.755Z,4.00
2018-06-21T14:08:07.684Z,3.20
2018-06-21T14:10:35.928Z,3.00
2018-06-21T14:13:02.467Z,1.00
2018-06-21T14:15:29.257Z,1.00
2018-06-21T14:17:55.747Z,3.00
2018-06-21T14:20:23.623Z,3.00
2018-06-21T14:22:51.225Z,1.00
2018-06-21T14:25:17.748Z,1.00
2018-06-21T14:27:45.126Z,1.00
2018-06-21T14:30:11.892Z,1.00
2018-06-21T14:32:38.380Z,1.00
2018-06-21T14:35:04.853Z,1.00
2018-06-21T14:37:31.345Z,0.00
2018-06-21T14:39:57.813Z,1.00
2018-06-21T14:42:26.303Z,1.00
2018-06-21T14:44:52.763Z,1.00
2018-06-21T14:47:19.220Z,0.60
2018-06-21T14:49:46.357Z,0.80
2018-06-21T14:52:13.068Z,1.00
2018-06-21T14:54:39.522Z,1.00
2018-06-21T14:57:06.301Z,1.00
2018-06-21T14:59:32.757Z,1.00
2018-06-21T15:01:59.221Z,0.00
2018-06-21T15:04:25.976Z,1.00
2018-06-21T15:06:53.443Z,0.00
2018-06-21T15:09:20.758Z,0.00
2018-06-21T15:11:48.597Z,0.00
2018-06-21T15:14:15.913Z,0.00
2018-06-21T15:16:42.385Z,0.00
2018-06-21T15:19:09.178Z,0.40
2018-06-21T15:21:35.702Z,0.00
2018-06-21T15:24:02.228Z,0.00
2018-06-21T15:26:29.744Z,1.00
2018-06-21T15:28:56.381Z,0.00
2018-06-21T15:31:22.954Z,0.00
2018-06-21T15:33:50.520Z,0.00
2018-06-21T15:36:18.048Z,0.00
2018-06-21T15:38:44.531Z,0.20
2018-06-21T15:41:11.364Z,0.00
2018-06-21T15:43:39.141Z,0.00
2018-06-21T15:46:05.715Z,1.00
2018-06-21T15:48:32.358Z,1.00
2018-06-21T15:50:58.984Z,1.00
2018-06-21T15:53:26.379Z,0.00
2018-06-21T15:55:53.379Z,0.20
2018-06-21T15:58:19.971Z,0.00
2018-06-21T16:00:47.330Z,0.20
2018-06-21T16:03:14.325Z,0.00
2018-06-21T16:05:42.252Z,0.00
2018-06-21T16:08:08.985Z,0.00
2018-06-21T16:10:36.505Z,1.00
2018-06-21T16:13:03.055Z,0.00
2018-06-21T16:15:29.540Z,1.00
2018-06-21T16:17:56.401Z,0.00
2018-06-21T16:20:22.973Z,0.00
2018-06-21T16:22:49.443Z,0.00
2018-06-21T16:25:17.256Z,0.00
2018-06-21T16:27:43.939Z,0.60
2018-06-21T16:30:10.541Z,0.00
2018-06-21T16:32:37.297Z,1.00
2018-06-21T16:35:04.387Z,0.00
2018-06-21T16:37:30.856Z,0.00
2018-06-21T16:39:57.588Z,0.00
2018-06-21T16:42:24.623Z,0.00
2018-06-21T16:44:52.209Z,0.00
2018-06-21T16:47:19.351Z,0.00
2018-06-21T16:49:46.094Z,1.00
2018-06-21T16:52:13.614Z,0.00
2018-06-21T16:54:40.427Z,0.00
2018-06-21T16:57:07.026Z,0.40
2018-06-21T16:59:33.568Z,0.00
2018-06-21T17:02:00.329Z,0.00
2018-06-21T17:04:26.842Z,0.00
2018-06-21T17:06:53.316Z,0.00
2018-06-21T17:09:20.118Z,0.00
2018-06-21T17:11:46.590Z,0.00
2018-06-21T17:14:13.062Z,0.00
2018-06-21T17:16:39.848Z,0.00
2018-06-21T17:19:06.465Z,0.00
2018-06-21T17:21:33.359Z,0.00
2018-06-21T17:24:00.646Z,0.00
2018-06-21T17:26:27.187Z,0.00
2018-06-21T17:28:53.914Z,0.00
2018-06-21T17:31:21.077Z,0.40
2018-06-21T17:33:48.167Z,0.00
2018-06-21T17:36:14.700Z,0.00
2018-06-21T17:38:41.468Z,0.00
2018-06-21T17:41:07.959Z,0.00
2018-06-21T17:43:34.413Z,0.00
2018-06-21T17:46:01.161Z,0.00
2018-06-21T17:48:27.667Z,0.00
2018-06-21T17:50:54.716Z,0.00
2018-06-21T17:53:22.724Z,0.00
2018-06-21T17:55:49.187Z,0.00
2018-06-21T17:58:16.634Z,0.00
2018-06-21T18:00:43.424Z,0.00
2018-06-21T18:03:09.913Z,0.00
2018-06-21T18:05:36.370Z,0.00
2018-06-21T18:08:02.896Z,0.00
2018-06-21T18:10:29.382Z,0.00
2018-06-21T18:12:56.365Z,0.00
2018-06-21T18:15:27.385Z,0.00
2018-06-21T18:17:53.855Z,0.00
2018-06-21T18:20:20.632Z,0.00
2018-06-21T18:22:47.146Z,0.00
2018-06-21T18:25:13.660Z,0.00
2018-06-21T18:27:41.432Z,0.00
2018-06-21T18:30:07.903Z,0.00
2018-06-21T18:32:34.364Z,0.00
2018-06-21T18:35:01.149Z,0.40
2018-06-21T18:37:27.609Z,1.00
2018-06-21T18:39:54.260Z,0.60
2018-06-21T18:42:22.023Z,1.00
2018-06-21T18:44:55.715Z,0.00
2018-06-21T18:47:25.298Z,0.80
2018-06-21T18:49:52.256Z,1.00
2018-06-21T18:52:18.769Z,0.00
2018-06-21T18:54:45.240Z,0.00
2018-06-21T18:57:13.649Z,0.00
2018-06-21T18:59:41.014Z,0.00
2018-06-21T19:02:08.288Z,0.60
2018-06-21T19:04:38.074Z,1.00
2018-06-21T19:07:04.533Z,0.00
2018-06-21T19:09:32.627Z,0.00
2018-06-21T19:11:59.417Z,0.00
2018-06-21T19:14:25.860Z,0.00
2018-06-21T19:16:54.928Z,0.00
2018-06-21T19:19:22.037Z,0.00
2018-06-21T19:21:48.547Z,0.60
2018-06-21T19:24:16.532Z,0.20
2018-06-21T19:26:43.286Z,0.00
2018-06-21T19:29:09.746Z,0.00
2018-06-21T19:31:38.095Z,0.00
2018-06-21T19:34:05.669Z,0.00
2018-06-21T19:36:33.273Z,0.40
2018-06-21T19:39:00.047Z,0.00
2018-06-21T19:41:27.440Z,0.00
2018-06-21T19:43:55.529Z,0.00
2018-06-21T19:46:23.867Z,0.00
2018-06-21T19:48:51.589Z,1.00
2018-06-21T19:51:18.052Z,1.00
2018-06-21T19:53:47.501Z,0.00
2018-06-21T19:56:14.240Z,1.00
2018-06-21T19:58:40.720Z,0.00
2018-06-21T20:01:21.364Z,0.00
2018-06-21T20:03:48.268Z,0.00
2018-06-21T20:06:14.985Z,0.00
2018-06-21T20:08:41.470Z,0.00
2018-06-21T20:11:09.042Z,0.00
2018-06-21T20:13:35.492Z,0.00
2018-06-21T20:18:36.047Z,0.00
2018-06-21T20:21:03.708Z,0.00
2018-06-21T20:23:32.125Z,0.00
2018-06-21T20:26:00.951Z,0.00
2018-06-21T20:28:28.254Z,0.00
2018-06-21T20:30:54.735Z,0.00
2018-06-21T20:33:21.905Z,0.40
2018-06-21T20:35:48.402Z,0.00
2018-06-21T20:38:15.853Z,0.00
2018-06-21T20:40:44.337Z,0.00
2018-06-21T20:43:12.945Z,0.00
2018-06-21T20:45:39.417Z,0.00
2018-06-21T20:48:07.612Z,0.00
2018-06-21T20:50:35.145Z,0.00
2018-06-21T20:53:02.618Z,0.00
2018-06-21T20:55:30.407Z,0.00
2018-06-21T20:57:58.345Z,0.20
2018-06-21T21:00:29.481Z,0.00
2018-06-21T21:02:57.132Z,0.00
2018-06-21T21:05:24.662Z,0.00
2018-06-21T21:07:53.537Z,0.00
2018-06-21T21:10:21.193Z,0.00
2018-06-21T21:12:48.341Z,0.00
2018-06-21T21:15:16.413Z,0.00
2018-06-21T21:17:46.116Z,1.00
2018-06-21T21:20:12.682Z,0.00
2018-06-21T21:22:39.965Z,0.80
2018-06-21T21:25:07.646Z,0.00
2018-06-21T21:27:35.359Z,0.00
2018-06-21T21:30:01.862Z,0.00
2018-06-21T21:32:28.612Z,0.60
2018-06-21T21:34:56.688Z,0.00
2018-06-21T21:37:24.404Z,1.00
2018-06-21T21:39:51.473Z,0.60
2018-06-21T21:42:19.349Z,1.00
2018-06-21T21:44:45.820Z,0.00
2018-06-21T21:47:12.586Z,0.40
2018-06-21T21:49:41.868Z,0.00
2018-06-21T21:52:09.017Z,1.00
2018-06-21T21:54:37.150Z,1.00
2018-06-21T21:59:45.154Z,0.00
2018-06-21T22:02:12.912Z,0.00
2018-06-21T22:04:39.361Z,0.40
2018-06-21T22:07:11.666Z,0.00
2018-06-21T22:09:38.289Z,0.60
2018-06-21T22:12:05.928Z,0.00
2018-06-21T22:14:33.474Z,0.00
2018-06-21T22:17:00.908Z,0.00
2018-06-21T22:19:28.671Z,0.00
2018-06-21T22:21:57.629Z,1.00
2018-06-21T22:24:24.366Z,0.00
2018-06-21T22:26:51.460Z,0.00
2018-06-21T22:31:49.712Z,0.00
2018-06-21T22:34:18.213Z,0.40
2018-06-21T22:36:47.349Z,0.80
2018-06-21T22:39:13.846Z,2.60
2018-06-21T22:41:40.591Z,0.40
2018-06-21T22:44:08.562Z,2.20
2018-06-21T22:46:35.381Z,1.00
2018-06-21T22:49:04.145Z,3.40
2018-06-21T22:54:02.616Z,1.00
2018-06-21T22:56:30.337Z,0.00
2018-06-21T22:58:57.175Z,0.40
2018-06-21T23:01:24.633Z,1.00
2018-06-21T23:03:51.286Z,0.00
2018-06-21T23:06:21.433Z,0.60
2018-06-21T23:08:50.227Z,0.80
2018-06-21T23:11:17.552Z,1.00
2018-06-21T23:13:44.325Z,0.00
2018-06-21T23:16:11.052Z,0.60
2018-06-21T23:18:37.810Z,1.00
2018-06-21T23:21:04.899Z,1.00
2018-06-21T23:23:31.343Z,0.00
2018-06-21T23:25:57.824Z,0.00
2018-06-21T23:28:24.949Z,0.00
2018-06-21T23:30:51.437Z,0.60
2018-06-21T23:33:17.874Z,0.00
2018-06-21T23:35:44.351Z,0.60
2018-06-21T23:38:11.195Z,0.00
2018-06-21T23:40:37.651Z,0.40
2018-06-21T23:43:04.154Z,1.00
2018-06-21T23:45:33.574Z,0.00
2018-06-21T23:48:00.412Z,1.00
2018-06-21T23:50:26.862Z,0.00
2018-06-21T23:52:53.317Z,1.00
2018-06-21T23:55:19.804Z,0.00
2018-06-21T23:57:46.553Z,0.60
